sensor_id;sensor_type;location;lat;lon;timestamp;P1;durP1;ratioP1;P2;durP2;ratioP2
57101;SDS011;42982;54.558;18.508;2022-11-04T00:00:39;10.40;;;4.32;;
57101;SDS011;42982;54.558;18.508;2022-11-04T00:01:45;11.95;;;5.30;;
57101;SDS011;42982;54.558;18.508;2022-11-04T00:02:48;17.33;;;4.70;;
57101;SDS011;42982;54.558;18.508;2022-11-04T00:03:51;13.82;;;5.18;;
57101;SDS011;42982;54.558;18.508;2022-11-04T00:04:53;15.65;;;5.68;;
57101;SDS011;42982;54.558;18.508;2022-11-04T00:05:59;19.58;;;5.25;;
57101;SDS011;42982;54.558;18.508;2022-11-04T00:07:04;26.25;;;5.60;;
57101;SDS011;42982;54.558;18.508;2022-11-04T00:08:26;12.43;;;5.03;;
57101;SDS011;42982;54.558;18.508;2022-11-04T00:09:32;13.77;;;4.32;;
57101;SDS011;42982;54.558;18.508;2022-11-04T00:10:40;20.13;;;4.28;;
57101;SDS011;42982;54.558;18.508;2022-11-04T00:12:03;15.13;;;4.88;;
57101;SDS011;42982;54.558;18.508;2022-11-04T00:13:27;15.50;;;5.03;;
57101;SDS011;42982;54.558;18.508;2022-11-04T00:14:30;11.15;;;4.45;;
57101;SDS011;42982;54.558;18.508;2022-11-04T00:15:35;14.35;;;4.43;;
57101;SDS011;42982;54.558;18.508;2022-11-04T00:16:57;9.65;;;3.80;;
57101;SDS011;42982;54.558;18.508;2022-11-04T00:18:17;13.40;;;4.32;;
57101;SDS011;42982;54.558;18.508;2022-11-04T00:19:22;16.40;;;4.85;;
57101;SDS011;42982;54.558;18.508;2022-11-04T00:20:26;14.93;;;5.53;;
57101;SDS011;42982;54.558;18.508;2022-11-04T00:21:47;15.80;;;5.63;;
57101;SDS011;42982;54.558;18.508;2022-11-04T00:23:08;14.43;;;4.75;;
57101;SDS011;42982;54.558;18.508;2022-11-04T00:24:29;11.77;;;4.25;;
57101;SDS011;42982;54.558;18.508;2022-11-04T00:25:43;13.88;;;4.80;;
57101;SDS011;42982;54.558;18.508;2022-11-04T00:27:04;13.60;;;4.75;;
57101;SDS011;42982;54.558;18.508;2022-11-04T00:28:32;15.40;;;4.35;;
57101;SDS011;42982;54.558;18.508;2022-11-04T00:29:43;19.45;;;4.85;;
57101;SDS011;42982;54.558;18.508;2022-11-04T00:30:46;17.20;;;4.57;;
57101;SDS011;42982;54.558;18.508;2022-11-04T00:31:49;13.95;;;5.07;;
57101;SDS011;42982;54.558;18.508;2022-11-04T00:33:10;15.82;;;5.10;;
57101;SDS011;42982;54.558;18.508;2022-11-04T00:34:27;14.48;;;5.00;;
57101;SDS011;42982;54.558;18.508;2022-11-04T00:35:30;14.25;;;4.68;;
57101;SDS011;42982;54.558;18.508;2022-11-04T00:36:32;15.85;;;4.35;;
57101;SDS011;42982;54.558;18.508;2022-11-04T00:37:35;10.15;;;3.72;;
57101;SDS011;42982;54.558;18.508;2022-11-04T00:38:40;20.80;;;6.38;;
57101;SDS011;42982;54.558;18.508;2022-11-04T00:39:43;15.52;;;4.70;;
57101;SDS011;42982;54.558;18.508;2022-11-04T00:40:50;12.30;;;4.22;;
57101;SDS011;42982;54.558;18.508;2022-11-04T00:41:54;16.83;;;4.55;;
57101;SDS011;42982;54.558;18.508;2022-11-04T00:42:59;15.98;;;5.30;;
57101;SDS011;42982;54.558;18.508;2022-11-04T00:44:04;16.42;;;5.10;;
57101;SDS011;42982;54.558;18.508;2022-11-04T00:45:06;18.95;;;5.65;;
57101;SDS011;42982;54.558;18.508;2022-11-04T00:46:08;13.73;;;5.43;;
57101;SDS011;42982;54.558;18.508;2022-11-04T00:47:13;14.32;;;4.20;;
57101;SDS011;42982;54.558;18.508;2022-11-04T00:48:18;16.08;;;5.32;;
57101;SDS011;42982;54.558;18.508;2022-11-04T00:49:20;11.18;;;4.40;;
57101;SDS011;42982;54.558;18.508;2022-11-04T00:50:25;15.57;;;4.97;;
57101;SDS011;42982;54.558;18.508;2022-11-04T00:51:31;20.08;;;5.40;;
57101;SDS011;42982;54.558;18.508;2022-11-04T00:52:35;13.57;;;5.22;;
57101;SDS011;42982;54.558;18.508;2022-11-04T00:53:37;14.10;;;4.95;;
57101;SDS011;42982;54.558;18.508;2022-11-04T00:54:40;16.63;;;4.18;;
57101;SDS011;42982;54.558;18.508;2022-11-04T00:55:45;14.35;;;5.07;;
57101;SDS011;42982;54.558;18.508;2022-11-04T00:56:52;21.63;;;4.88;;
57101;SDS011;42982;54.558;18.508;2022-11-04T00:57:54;17.08;;;4.75;;
57101;SDS011;42982;54.558;18.508;2022-11-04T00:58:58;16.05;;;5.28;;
57101;SDS011;42982;54.558;18.508;2022-11-04T01:00:02;15.77;;;4.80;;
57101;SDS011;42982;54.558;18.508;2022-11-04T01:01:13;14.57;;;4.68;;
57101;SDS011;42982;54.558;18.508;2022-11-04T01:02:20;18.50;;;4.82;;
57101;SDS011;42982;54.558;18.508;2022-11-04T01:03:25;16.73;;;4.95;;
57101;SDS011;42982;54.558;18.508;2022-11-04T01:04:27;19.98;;;4.72;;
57101;SDS011;42982;54.558;18.508;2022-11-04T01:05:35;15.48;;;4.93;;
57101;SDS011;42982;54.558;18.508;2022-11-04T01:06:38;12.10;;;4.55;;
57101;SDS011;42982;54.558;18.508;2022-11-04T01:07:41;9.65;;;3.50;;
57101;SDS011;42982;54.558;18.508;2022-11-04T01:08:43;16.83;;;5.03;;
57101;SDS011;42982;54.558;18.508;2022-11-04T01:09:47;15.75;;;4.93;;
57101;SDS011;42982;54.558;18.508;2022-11-04T01:10:52;14.68;;;5.10;;
57101;SDS011;42982;54.558;18.508;2022-11-04T01:11:55;12.32;;;4.20;;
57101;SDS011;42982;54.558;18.508;2022-11-04T01:12:58;9.75;;;4.22;;
57101;SDS011;42982;54.558;18.508;2022-11-04T01:14:03;15.98;;;4.60;;
57101;SDS011;42982;54.558;18.508;2022-11-04T01:15:06;12.50;;;4.43;;
57101;SDS011;42982;54.558;18.508;2022-11-04T01:16:13;14.40;;;4.88;;
57101;SDS011;42982;54.558;18.508;2022-11-04T01:17:16;11.48;;;4.95;;
57101;SDS011;42982;54.558;18.508;2022-11-04T01:18:18;13.05;;;5.13;;
57101;SDS011;42982;54.558;18.508;2022-11-04T01:19:23;12.48;;;4.50;;
57101;SDS011;42982;54.558;18.508;2022-11-04T01:20:30;17.48;;;4.85;;
57101;SDS011;42982;54.558;18.508;2022-11-04T01:21:33;12.52;;;4.82;;
57101;SDS011;42982;54.558;18.508;2022-11-04T01:22:39;17.88;;;4.72;;
57101;SDS011;42982;54.558;18.508;2022-11-04T01:23:42;12.80;;;4.25;;
57101;SDS011;42982;54.558;18.508;2022-11-04T01:24:45;12.93;;;4.55;;
57101;SDS011;42982;54.558;18.508;2022-11-04T01:25:49;14.32;;;4.95;;
57101;SDS011;42982;54.558;18.508;2022-11-04T01:26:54;14.43;;;4.55;;
57101;SDS011;42982;54.558;18.508;2022-11-04T01:28:00;12.63;;;4.28;;
57101;SDS011;42982;54.558;18.508;2022-11-04T01:29:03;15.85;;;4.65;;
57101;SDS011;42982;54.558;18.508;2022-11-04T01:30:05;17.48;;;4.88;;
57101;SDS011;42982;54.558;18.508;2022-11-04T01:31:13;11.80;;;4.65;;
57101;SDS011;42982;54.558;18.508;2022-11-04T01:32:16;13.65;;;4.22;;
57101;SDS011;42982;54.558;18.508;2022-11-04T01:33:19;14.13;;;4.50;;
57101;SDS011;42982;54.558;18.508;2022-11-04T01:34:21;15.98;;;5.50;;
57101;SDS011;42982;54.558;18.508;2022-11-04T01:35:24;8.77;;;3.80;;
57101;SDS011;42982;54.558;18.508;2022-11-04T01:36:31;19.50;;;5.45;;
57101;SDS011;42982;54.558;18.508;2022-11-04T01:37:36;14.43;;;5.13;;
57101;SDS011;42982;54.558;18.508;2022-11-04T01:38:40;20.35;;;5.43;;
57101;SDS011;42982;54.558;18.508;2022-11-04T01:39:42;14.88;;;5.10;;
57101;SDS011;42982;54.558;18.508;2022-11-04T01:40:44;13.13;;;5.25;;
57101;SDS011;42982;54.558;18.508;2022-11-04T01:41:46;10.85;;;4.68;;
57101;SDS011;42982;54.558;18.508;2022-11-04T01:42:50;9.57;;;4.75;;
57101;SDS011;42982;54.558;18.508;2022-11-04T01:43:57;14.80;;;4.80;;
57101;SDS011;42982;54.558;18.508;2022-11-04T01:45:04;13.30;;;4.78;;
57101;SDS011;42982;54.558;18.508;2022-11-04T01:48:45;14.02;;;4.78;;
57101;SDS011;42982;54.558;18.508;2022-11-04T01:49:52;18.48;;;5.03;;
57101;SDS011;42982;54.558;18.508;2022-11-04T01:51:04;18.00;;;4.32;;
57101;SDS011;42982;54.558;18.508;2022-11-04T01:52:09;13.13;;;4.50;;
57101;SDS011;42982;54.558;18.508;2022-11-04T01:53:15;17.90;;;4.80;;
57101;SDS011;42982;54.558;18.508;2022-11-04T01:54:22;14.85;;;4.55;;
57101;SDS011;42982;54.558;18.508;2022-11-04T01:55:32;15.73;;;4.78;;
57101;SDS011;42982;54.558;18.508;2022-11-04T01:56:36;12.32;;;4.85;;
57101;SDS011;42982;54.558;18.508;2022-11-04T01:57:41;17.52;;;5.45;;
57101;SDS011;42982;54.558;18.508;2022-11-04T01:58:48;16.50;;;5.10;;
57101;SDS011;42982;54.558;18.508;2022-11-04T01:59:57;15.73;;;4.50;;
57101;SDS011;42982;54.558;18.508;2022-11-04T02:01:01;20.58;;;5.15;;
57101;SDS011;42982;54.558;18.508;2022-11-04T02:02:04;14.63;;;4.65;;
57101;SDS011;42982;54.558;18.508;2022-11-04T02:03:15;14.63;;;4.72;;
57101;SDS011;42982;54.558;18.508;2022-11-04T02:04:20;12.43;;;4.82;;
57101;SDS011;42982;54.558;18.508;2022-11-04T02:05:28;16.85;;;4.72;;
57101;SDS011;42982;54.558;18.508;2022-11-04T02:06:30;13.85;;;4.50;;
57101;SDS011;42982;54.558;18.508;2022-11-04T02:07:36;13.70;;;5.43;;
57101;SDS011;42982;54.558;18.508;2022-11-04T02:08:41;12.90;;;4.15;;
57101;SDS011;42982;54.558;18.508;2022-11-04T02:09:50;14.90;;;4.75;;
57101;SDS011;42982;54.558;18.508;2022-11-04T02:10:55;16.48;;;5.40;;
57101;SDS011;42982;54.558;18.508;2022-11-04T02:11:59;17.83;;;5.57;;
57101;SDS011;42982;54.558;18.508;2022-11-04T02:13:25;13.75;;;4.65;;
57101;SDS011;42982;54.558;18.508;2022-11-04T02:14:29;14.10;;;4.13;;
57101;SDS011;42982;54.558;18.508;2022-11-04T02:15:40;12.13;;;4.13;;
57101;SDS011;42982;54.558;18.508;2022-11-04T02:16:51;12.70;;;3.60;;
57101;SDS011;42982;54.558;18.508;2022-11-04T02:18:13;12.88;;;4.57;;
57101;SDS011;42982;54.558;18.508;2022-11-04T02:20:27;12.95;;;4.15;;
57101;SDS011;42982;54.558;18.508;2022-11-04T02:30:18;11.85;;;3.80;;
57101;SDS011;42982;54.558;18.508;2022-11-04T02:31:30;10.13;;;4.22;;
57101;SDS011;42982;54.558;18.508;2022-11-04T02:33:52;9.88;;;3.13;;
57101;SDS011;42982;54.558;18.508;2022-11-04T02:35:10;15.27;;;3.95;;
57101;SDS011;42982;54.558;18.508;2022-11-04T02:37:53;10.75;;;3.03;;
57101;SDS011;42982;54.558;18.508;2022-11-04T02:39:04;16.20;;;3.78;;
57101;SDS011;42982;54.558;18.508;2022-11-04T02:43:17;9.15;;;3.10;;
57101;SDS011;42982;54.558;18.508;2022-11-04T02:44:25;7.78;;;2.95;;
57101;SDS011;42982;54.558;18.508;2022-11-04T02:46:57;10.93;;;3.03;;
57101;SDS011;42982;54.558;18.508;2022-11-04T02:48:16;11.13;;;3.45;;
57101;SDS011;42982;54.558;18.508;2022-11-04T02:49:23;9.43;;;3.08;;
57101;SDS011;42982;54.558;18.508;2022-11-04T02:51:54;12.73;;;3.10;;
57101;SDS011;42982;54.558;18.508;2022-11-04T02:53:06;11.07;;;3.05;;
57101;SDS011;42982;54.558;18.508;2022-11-04T02:54:35;8.90;;;3.38;;
57101;SDS011;42982;54.558;18.508;2022-11-04T02:55:43;9.52;;;3.00;;
57101;SDS011;42982;54.558;18.508;2022-11-04T02:56:49;14.13;;;3.60;;
57101;SDS011;42982;54.558;18.508;2022-11-04T02:57:55;11.43;;;3.45;;
57101;SDS011;42982;54.558;18.508;2022-11-04T02:59:04;12.52;;;3.53;;
57101;SDS011;42982;54.558;18.508;2022-11-04T03:00:31;9.82;;;3.15;;
57101;SDS011;42982;54.558;18.508;2022-11-04T03:01:40;14.18;;;2.85;;
57101;SDS011;42982;54.558;18.508;2022-11-04T03:02:49;10.00;;;3.55;;
57101;SDS011;42982;54.558;18.508;2022-11-04T03:03:56;11.18;;;2.85;;
57101;SDS011;42982;54.558;18.508;2022-11-04T03:05:04;10.30;;;2.72;;
57101;SDS011;42982;54.558;18.508;2022-11-04T03:06:09;8.52;;;3.05;;
57101;SDS011;42982;54.558;18.508;2022-11-04T03:07:16;12.02;;;3.38;;
57101;SDS011;42982;54.558;18.508;2022-11-04T03:08:32;9.27;;;3.88;;
57101;SDS011;42982;54.558;18.508;2022-11-04T03:09:45;9.68;;;3.42;;
57101;SDS011;42982;54.558;18.508;2022-11-04T03:10:53;9.10;;;2.22;;
57101;SDS011;42982;54.558;18.508;2022-11-04T03:12:05;8.38;;;3.00;;
57101;SDS011;42982;54.558;18.508;2022-11-04T03:13:30;11.27;;;3.45;;
57101;SDS011;42982;54.558;18.508;2022-11-04T03:14:43;8.30;;;2.58;;
57101;SDS011;42982;54.558;18.508;2022-11-04T03:15:56;8.07;;;3.22;;
57101;SDS011;42982;54.558;18.508;2022-11-04T03:17:04;9.38;;;3.08;;
57101;SDS011;42982;54.558;18.508;2022-11-04T03:18:15;13.20;;;3.83;;
57101;SDS011;42982;54.558;18.508;2022-11-04T03:21:01;9.77;;;2.90;;
57101;SDS011;42982;54.558;18.508;2022-11-04T03:23:07;8.07;;;2.28;;
57101;SDS011;42982;54.558;18.508;2022-11-04T03:24:11;9.82;;;2.95;;
57101;SDS011;42982;54.558;18.508;2022-11-04T03:25:16;10.05;;;2.60;;
57101;SDS011;42982;54.558;18.508;2022-11-04T03:30:10;9.00;;;2.90;;
57101;SDS011;42982;54.558;18.508;2022-11-04T03:31:18;12.90;;;3.60;;
57101;SDS011;42982;54.558;18.508;2022-11-04T03:32:36;9.40;;;2.55;;
57101;SDS011;42982;54.558;18.508;2022-11-04T03:34:04;11.80;;;2.90;;
57101;SDS011;42982;54.558;18.508;2022-11-04T03:35:13;6.95;;;2.42;;
57101;SDS011;42982;54.558;18.508;2022-11-04T03:36:16;10.10;;;2.78;;
57101;SDS011;42982;54.558;18.508;2022-11-04T03:37:22;12.70;;;3.10;;
57101;SDS011;42982;54.558;18.508;2022-11-04T03:38:25;10.60;;;3.10;;
57101;SDS011;42982;54.558;18.508;2022-11-04T03:39:30;10.10;;;2.70;;
57101;SDS011;42982;54.558;18.508;2022-11-04T03:40:36;15.07;;;2.95;;
57101;SDS011;42982;54.558;18.508;2022-11-04T03:41:43;7.20;;;3.00;;
57101;SDS011;42982;54.558;18.508;2022-11-04T03:42:53;6.07;;;2.17;;
57101;SDS011;42982;54.558;18.508;2022-11-04T03:43:58;8.95;;;3.15;;
57101;SDS011;42982;54.558;18.508;2022-11-04T03:45:00;12.45;;;3.22;;
57101;SDS011;42982;54.558;18.508;2022-11-04T03:46:03;7.57;;;2.58;;
57101;SDS011;42982;54.558;18.508;2022-11-04T03:47:06;10.45;;;2.63;;
57101;SDS011;42982;54.558;18.508;2022-11-04T03:48:11;8.98;;;3.28;;
57101;SDS011;42982;54.558;18.508;2022-11-04T03:49:14;10.55;;;3.40;;
57101;SDS011;42982;54.558;18.508;2022-11-04T03:50:26;14.07;;;3.05;;
57101;SDS011;42982;54.558;18.508;2022-11-04T03:51:49;12.32;;;3.22;;
57101;SDS011;42982;54.558;18.508;2022-11-04T03:52:52;13.38;;;3.65;;
57101;SDS011;42982;54.558;18.508;2022-11-04T03:53:56;7.32;;;2.88;;
57101;SDS011;42982;54.558;18.508;2022-11-04T03:54:59;7.93;;;3.30;;
57101;SDS011;42982;54.558;18.508;2022-11-04T04:00:09;11.23;;;2.95;;
57101;SDS011;42982;54.558;18.508;2022-11-04T04:02:26;8.45;;;3.33;;
57101;SDS011;42982;54.558;18.508;2022-11-04T04:03:56;10.45;;;2.80;;
57101;SDS011;42982;54.558;18.508;2022-11-04T04:05:26;7.55;;;3.40;;
57101;SDS011;42982;54.558;18.508;2022-11-04T04:06:31;11.70;;;3.90;;
57101;SDS011;42982;54.558;18.508;2022-11-04T04:07:39;12.18;;;2.97;;
57101;SDS011;42982;54.558;18.508;2022-11-04T04:10:00;11.45;;;3.15;;
57101;SDS011;42982;54.558;18.508;2022-11-04T04:11:41;10.80;;;2.72;;
57101;SDS011;42982;54.558;18.508;2022-11-04T04:12:50;6.30;;;2.55;;
57101;SDS011;42982;54.558;18.508;2022-11-04T04:15:08;9.48;;;3.25;;
57101;SDS011;42982;54.558;18.508;2022-11-04T04:16:19;10.50;;;3.30;;
57101;SDS011;42982;54.558;18.508;2022-11-04T04:17:39;8.00;;;2.95;;
57101;SDS011;42982;54.558;18.508;2022-11-04T04:18:47;7.85;;;3.47;;
57101;SDS011;42982;54.558;18.508;2022-11-04T04:19:58;11.18;;;3.13;;
57101;SDS011;42982;54.558;18.508;2022-11-04T04:21:20;12.23;;;2.97;;
57101;SDS011;42982;54.558;18.508;2022-11-04T04:22:30;8.93;;;3.40;;
57101;SDS011;42982;54.558;18.508;2022-11-04T04:23:37;12.77;;;3.28;;
57101;SDS011;42982;54.558;18.508;2022-11-04T04:25:00;10.18;;;3.70;;
57101;SDS011;42982;54.558;18.508;2022-11-04T04:26:27;8.05;;;3.50;;
57101;SDS011;42982;54.558;18.508;2022-11-04T04:27:50;4.88;;;2.33;;
57101;SDS011;42982;54.558;18.508;2022-11-04T04:29:00;7.75;;;2.83;;
57101;SDS011;42982;54.558;18.508;2022-11-04T04:30:12;9.13;;;3.20;;
57101;SDS011;42982;54.558;18.508;2022-11-04T04:31:18;15.32;;;3.03;;
57101;SDS011;42982;54.558;18.508;2022-11-04T04:32:44;11.95;;;2.85;;
57101;SDS011;42982;54.558;18.508;2022-11-04T04:33:54;10.35;;;3.28;;
57101;SDS011;42982;54.558;18.508;2022-11-04T04:35:01;8.05;;;2.92;;
57101;SDS011;42982;54.558;18.508;2022-11-04T04:36:24;6.93;;;2.42;;
57101;SDS011;42982;54.558;18.508;2022-11-04T04:37:28;6.68;;;2.97;;
57101;SDS011;42982;54.558;18.508;2022-11-04T04:38:34;8.20;;;3.13;;
57101;SDS011;42982;54.558;18.508;2022-11-04T04:39:59;10.43;;;3.08;;
57101;SDS011;42982;54.558;18.508;2022-11-04T04:41:22;7.18;;;2.90;;
57101;SDS011;42982;54.558;18.508;2022-11-04T04:42:46;12.15;;;3.42;;
57101;SDS011;42982;54.558;18.508;2022-11-04T04:45:40;7.75;;;3.33;;
57101;SDS011;42982;54.558;18.508;2022-11-04T04:46:46;11.55;;;3.15;;
57101;SDS011;42982;54.558;18.508;2022-11-04T04:47:57;9.75;;;3.42;;
57101;SDS011;42982;54.558;18.508;2022-11-04T04:49:06;8.23;;;3.05;;
57101;SDS011;42982;54.558;18.508;2022-11-04T04:50:10;9.23;;;2.78;;
57101;SDS011;42982;54.558;18.508;2022-11-04T04:51:15;6.55;;;3.28;;
57101;SDS011;42982;54.558;18.508;2022-11-04T04:52:17;11.85;;;3.22;;
57101;SDS011;42982;54.558;18.508;2022-11-04T04:53:26;11.63;;;3.03;;
57101;SDS011;42982;54.558;18.508;2022-11-04T04:54:30;9.45;;;3.05;;
57101;SDS011;42982;54.558;18.508;2022-11-04T04:55:34;7.10;;;2.70;;
57101;SDS011;42982;54.558;18.508;2022-11-04T04:56:37;7.40;;;2.80;;
57101;SDS011;42982;54.558;18.508;2022-11-04T04:57:41;8.73;;;3.08;;
57101;SDS011;42982;54.558;18.508;2022-11-04T04:58:46;7.47;;;3.55;;
57101;SDS011;42982;54.558;18.508;2022-11-04T04:59:49;8.00;;;2.88;;
57101;SDS011;42982;54.558;18.508;2022-11-04T05:00:54;5.90;;;2.63;;
57101;SDS011;42982;54.558;18.508;2022-11-04T05:01:56;12.07;;;3.63;;
57101;SDS011;42982;54.558;18.508;2022-11-04T05:03:03;9.55;;;3.00;;
57101;SDS011;42982;54.558;18.508;2022-11-04T05:04:08;8.77;;;2.75;;
57101;SDS011;42982;54.558;18.508;2022-11-04T05:05:13;5.45;;;2.40;;
57101;SDS011;42982;54.558;18.508;2022-11-04T05:06:19;10.32;;;2.95;;
57101;SDS011;42982;54.558;18.508;2022-11-04T05:07:21;11.85;;;3.88;;
57101;SDS011;42982;54.558;18.508;2022-11-04T05:08:27;8.25;;;3.10;;
57101;SDS011;42982;54.558;18.508;2022-11-04T05:09:32;11.13;;;3.45;;
57101;SDS011;42982;54.558;18.508;2022-11-04T05:10:35;8.07;;;2.58;;
57101;SDS011;42982;54.558;18.508;2022-11-04T05:11:37;16.27;;;3.50;;
57101;SDS011;42982;54.558;18.508;2022-11-04T05:12:40;10.80;;;3.20;;
57101;SDS011;42982;54.558;18.508;2022-11-04T05:14:00;5.47;;;2.83;;
57101;SDS011;42982;54.558;18.508;2022-11-04T05:15:06;14.40;;;3.33;;
57101;SDS011;42982;54.558;18.508;2022-11-04T05:16:10;12.40;;;3.25;;
57101;SDS011;42982;54.558;18.508;2022-11-04T05:17:13;8.27;;;3.15;;
57101;SDS011;42982;54.558;18.508;2022-11-04T05:18:16;9.98;;;3.20;;
57101;SDS011;42982;54.558;18.508;2022-11-04T05:19:23;6.75;;;2.85;;
57101;SDS011;42982;54.558;18.508;2022-11-04T05:20:25;9.77;;;3.55;;
57101;SDS011;42982;54.558;18.508;2022-11-04T05:21:34;5.97;;;2.78;;
57101;SDS011;42982;54.558;18.508;2022-11-04T05:22:37;11.20;;;3.45;;
57101;SDS011;42982;54.558;18.508;2022-11-04T05:23:45;8.00;;;2.85;;
57101;SDS011;42982;54.558;18.508;2022-11-04T05:24:48;11.55;;;3.25;;
57101;SDS011;42982;54.558;18.508;2022-11-04T05:25:56;13.45;;;2.97;;
57101;SDS011;42982;54.558;18.508;2022-11-04T05:27:02;7.07;;;3.17;;
57101;SDS011;42982;54.558;18.508;2022-11-04T05:28:07;11.30;;;3.28;;
57101;SDS011;42982;54.558;18.508;2022-11-04T05:29:10;11.20;;;2.90;;
57101;SDS011;42982;54.558;18.508;2022-11-04T05:30:12;9.35;;;3.17;;
57101;SDS011;42982;54.558;18.508;2022-11-04T05:31:15;8.07;;;3.20;;
57101;SDS011;42982;54.558;18.508;2022-11-04T05:32:17;10.98;;;3.38;;
57101;SDS011;42982;54.558;18.508;2022-11-04T05:33:20;8.05;;;3.13;;
57101;SDS011;42982;54.558;18.508;2022-11-04T05:34:23;9.23;;;3.17;;
57101;SDS011;42982;54.558;18.508;2022-11-04T05:35:27;6.78;;;2.85;;
57101;SDS011;42982;54.558;18.508;2022-11-04T05:36:31;11.05;;;3.67;;
57101;SDS011;42982;54.558;18.508;2022-11-04T05:37:36;9.43;;;3.42;;
57101;SDS011;42982;54.558;18.508;2022-11-04T05:38:39;9.38;;;3.38;;
57101;SDS011;42982;54.558;18.508;2022-11-04T05:39:42;7.45;;;3.13;;
57101;SDS011;42982;54.558;18.508;2022-11-04T05:40:45;9.80;;;3.33;;
57101;SDS011;42982;54.558;18.508;2022-11-04T05:41:50;9.57;;;3.20;;
57101;SDS011;42982;54.558;18.508;2022-11-04T05:42:57;13.88;;;3.67;;
57101;SDS011;42982;54.558;18.508;2022-11-04T05:44:00;7.28;;;2.78;;
57101;SDS011;42982;54.558;18.508;2022-11-04T05:45:03;9.50;;;3.17;;
57101;SDS011;42982;54.558;18.508;2022-11-04T05:46:07;15.52;;;3.42;;
57101;SDS011;42982;54.558;18.508;2022-11-04T05:47:10;11.15;;;3.70;;
57101;SDS011;42982;54.558;18.508;2022-11-04T05:48:12;10.95;;;3.83;;
57101;SDS011;42982;54.558;18.508;2022-11-04T05:49:17;10.63;;;3.40;;
57101;SDS011;42982;54.558;18.508;2022-11-04T05:50:20;11.07;;;3.10;;
57101;SDS011;42982;54.558;18.508;2022-11-04T05:51:26;7.25;;;2.33;;
57101;SDS011;42982;54.558;18.508;2022-11-04T05:52:31;10.45;;;3.55;;
57101;SDS011;42982;54.558;18.508;2022-11-04T05:53:33;8.07;;;2.75;;
57101;SDS011;42982;54.558;18.508;2022-11-04T05:54:38;8.25;;;3.50;;
57101;SDS011;42982;54.558;18.508;2022-11-04T05:55:40;8.00;;;2.90;;
57101;SDS011;42982;54.558;18.508;2022-11-04T05:56:44;12.18;;;3.35;;
57101;SDS011;42982;54.558;18.508;2022-11-04T05:57:51;10.73;;;3.45;;
57101;SDS011;42982;54.558;18.508;2022-11-04T05:58:57;8.68;;;3.25;;
57101;SDS011;42982;54.558;18.508;2022-11-04T06:00:02;9.70;;;3.25;;
57101;SDS011;42982;54.558;18.508;2022-11-04T06:01:24;11.40;;;3.63;;
57101;SDS011;42982;54.558;18.508;2022-11-04T06:02:42;7.22;;;3.50;;
57101;SDS011;42982;54.558;18.508;2022-11-04T06:03:48;13.07;;;4.45;;
57101;SDS011;42982;54.558;18.508;2022-11-04T06:04:50;15.77;;;4.13;;
57101;SDS011;42982;54.558;18.508;2022-11-04T06:05:53;12.73;;;4.00;;
57101;SDS011;42982;54.558;18.508;2022-11-04T06:06:55;11.10;;;3.03;;
57101;SDS011;42982;54.558;18.508;2022-11-04T06:07:57;13.95;;;4.43;;
57101;SDS011;42982;54.558;18.508;2022-11-04T06:08:59;12.60;;;3.53;;
57101;SDS011;42982;54.558;18.508;2022-11-04T06:10:03;8.73;;;3.45;;
57101;SDS011;42982;54.558;18.508;2022-11-04T06:11:13;7.03;;;2.72;;
57101;SDS011;42982;54.558;18.508;2022-11-04T06:12:18;8.20;;;2.80;;
57101;SDS011;42982;54.558;18.508;2022-11-04T06:13:21;6.68;;;2.72;;
57101;SDS011;42982;54.558;18.508;2022-11-04T06:14:23;7.22;;;2.72;;
57101;SDS011;42982;54.558;18.508;2022-11-04T06:15:26;7.07;;;3.15;;
57101;SDS011;42982;54.558;18.508;2022-11-04T06:16:29;10.18;;;3.97;;
57101;SDS011;42982;54.558;18.508;2022-11-04T06:17:32;9.65;;;4.18;;
57101;SDS011;42982;54.558;18.508;2022-11-04T06:18:38;10.65;;;3.40;;
57101;SDS011;42982;54.558;18.508;2022-11-04T06:19:47;9.27;;;3.70;;
57101;SDS011;42982;54.558;18.508;2022-11-04T06:20:50;12.40;;;3.42;;
57101;SDS011;42982;54.558;18.508;2022-11-04T06:22:26;9.68;;;3.30;;
57101;SDS011;42982;54.558;18.508;2022-11-04T06:23:29;9.05;;;3.67;;
57101;SDS011;42982;54.558;18.508;2022-11-04T06:24:35;18.15;;;3.30;;
57101;SDS011;42982;54.558;18.508;2022-11-04T06:25:40;6.03;;;2.85;;
57101;SDS011;42982;54.558;18.508;2022-11-04T06:26:43;9.07;;;3.38;;
57101;SDS011;42982;54.558;18.508;2022-11-04T06:27:49;10.32;;;3.47;;
57101;SDS011;42982;54.558;18.508;2022-11-04T06:28:56;9.55;;;2.70;;
57101;SDS011;42982;54.558;18.508;2022-11-04T06:30:03;9.75;;;3.63;;
57101;SDS011;42982;54.558;18.508;2022-11-04T06:31:12;7.85;;;2.72;;
57101;SDS011;42982;54.558;18.508;2022-11-04T06:32:15;11.70;;;3.08;;
57101;SDS011;42982;54.558;18.508;2022-11-04T06:33:18;9.25;;;3.17;;
57101;SDS011;42982;54.558;18.508;2022-11-04T06:34:21;22.60;;;3.47;;
57101;SDS011;42982;54.558;18.508;2022-11-04T06:35:24;7.22;;;3.17;;
57101;SDS011;42982;54.558;18.508;2022-11-04T06:36:28;6.72;;;3.08;;
57101;SDS011;42982;54.558;18.508;2022-11-04T06:37:31;7.93;;;2.55;;
57101;SDS011;42982;54.558;18.508;2022-11-04T06:38:35;8.55;;;2.78;;
57101;SDS011;42982;54.558;18.508;2022-11-04T06:39:39;9.35;;;3.67;;
57101;SDS011;42982;54.558;18.508;2022-11-04T06:40:42;12.68;;;3.33;;
57101;SDS011;42982;54.558;18.508;2022-11-04T06:41:45;17.23;;;2.90;;
57101;SDS011;42982;54.558;18.508;2022-11-04T06:42:51;10.52;;;3.80;;
57101;SDS011;42982;54.558;18.508;2022-11-04T06:43:55;8.60;;;3.05;;
57101;SDS011;42982;54.558;18.508;2022-11-04T06:44:58;9.98;;;3.90;;
57101;SDS011;42982;54.558;18.508;2022-11-04T06:46:01;6.90;;;2.97;;
57101;SDS011;42982;54.558;18.508;2022-11-04T06:47:03;10.60;;;3.30;;
57101;SDS011;42982;54.558;18.508;2022-11-04T06:48:05;8.30;;;3.28;;
57101;SDS011;42982;54.558;18.508;2022-11-04T06:49:14;9.20;;;3.72;;
57101;SDS011;42982;54.558;18.508;2022-11-04T06:50:20;11.20;;;2.95;;
57101;SDS011;42982;54.558;18.508;2022-11-04T06:51:23;8.38;;;3.30;;
57101;SDS011;42982;54.558;18.508;2022-11-04T06:52:25;14.07;;;3.42;;
57101;SDS011;42982;54.558;18.508;2022-11-04T06:53:28;10.48;;;2.97;;
57101;SDS011;42982;54.558;18.508;2022-11-04T06:54:30;13.63;;;3.22;;
57101;SDS011;42982;54.558;18.508;2022-11-04T06:55:32;16.77;;;3.40;;
57101;SDS011;42982;54.558;18.508;2022-11-04T06:56:35;9.32;;;2.83;;
57101;SDS011;42982;54.558;18.508;2022-11-04T06:57:41;8.32;;;3.88;;
57101;SDS011;42982;54.558;18.508;2022-11-04T06:58:50;7.75;;;2.78;;
57101;SDS011;42982;54.558;18.508;2022-11-04T06:59:58;11.13;;;4.00;;
57101;SDS011;42982;54.558;18.508;2022-11-04T07:01:01;7.53;;;3.17;;
57101;SDS011;42982;54.558;18.508;2022-11-04T07:02:09;9.32;;;2.95;;
57101;SDS011;42982;54.558;18.508;2022-11-04T07:03:11;8.18;;;3.13;;
57101;SDS011;42982;54.558;18.508;2022-11-04T07:04:13;11.07;;;3.03;;
57101;SDS011;42982;54.558;18.508;2022-11-04T07:05:14;8.23;;;3.05;;
57101;SDS011;42982;54.558;18.508;2022-11-04T07:06:18;10.13;;;3.13;;
57101;SDS011;42982;54.558;18.508;2022-11-04T07:07:21;5.25;;;2.40;;
57101;SDS011;42982;54.558;18.508;2022-11-04T07:08:25;11.27;;;3.05;;
57101;SDS011;42982;54.558;18.508;2022-11-04T07:09:29;9.68;;;3.25;;
57101;SDS011;42982;54.558;18.508;2022-11-04T07:10:32;11.88;;;3.10;;
57101;SDS011;42982;54.558;18.508;2022-11-04T07:11:34;2.80;;;1.88;;
57101;SDS011;42982;54.558;18.508;2022-11-04T07:12:37;6.78;;;3.03;;